sensor_id;sensor_type;location;lat;lon;timestamp;P1;durP1;ratioP1;P2;durP2;ratioP2
76761;SDS011;65705;51.032;13.790;2023-02-28T00:01:20;7.10;;;3.05;;
76761;SDS011;65705;51.032;13.790;2023-02-28T00:03:46;8.05;;;3.38;;
76761;SDS011;65705;51.032;13.790;2023-02-28T00:06:12;6.72;;;3.13;;
76761;SDS011;65705;51.032;13.790;2023-02-28T00:08:38;7.25;;;3.40;;
76761;SDS011;65705;51.032;13.790;2023-02-28T00:11:05;6.80;;;2.97;;
76761;SDS011;65705;51.032;13.790;2023-02-28T00:13:33;8.48;;;3.70;;
76761;SDS011;65705;51.032;13.790;2023-02-28T00:16:04;10.05;;;4.05;;
76761;SDS011;65705;51.032;13.790;2023-02-28T00:18:32;8.95;;;3.92;;
76761;SDS011;65705;51.032;13.790;2023-02-28T00:20:58;7.93;;;3.72;;
76761;SDS011;65705;51.032;13.790;2023-02-28T00:23:25;8.23;;;3.60;;
76761;SDS011;65705;51.032;13.790;2023-02-28T00:25:51;8.27;;;3.90;;
76761;SDS011;65705;51.032;13.790;2023-02-28T00:28:18;9.07;;;3.60;;
76761;SDS011;65705;51.032;13.790;2023-02-28T00:30:44;8.95;;;3.80;;
76761;SDS011;65705;51.032;13.790;2023-02-28T00:33:10;7.82;;;3.13;;
76761;SDS011;65705;51.032;13.790;2023-02-28T00:35:36;5.82;;;3.20;;
76761;SDS011;65705;51.032;13.790;2023-02-28T00:38:01;8.40;;;3.60;;
76761;SDS011;65705;51.032;13.790;2023-02-28T00:40:27;7.28;;;3.50;;
76761;SDS011;65705;51.032;13.790;2023-02-28T00:42:53;7.72;;;3.13;;
76761;SDS011;65705;51.032;13.790;2023-02-28T00:45:19;10.90;;;3.67;;
76761;SDS011;65705;51.032;13.790;2023-02-28T00:47:45;8.43;;;3.45;;
76761;SDS011;65705;51.032;13.790;2023-02-28T00:50:11;7.28;;;3.90;;
76761;SDS011;65705;51.032;13.790;2023-02-28T00:52:37;9.02;;;3.60;;
76761;SDS011;65705;51.032;13.790;2023-02-28T00:55:04;7.57;;;3.00;;
76761;SDS011;65705;51.032;13.790;2023-02-28T00:57:30;9.55;;;3.08;;
76761;SDS011;65705;51.032;13.790;2023-02-28T00:59:55;7.32;;;3.42;;
76761;SDS011;65705;51.032;13.790;2023-02-28T01:02:22;5.25;;;2.38;;
76761;SDS011;65705;51.032;13.790;2023-02-28T01:04:48;8.10;;;3.63;;
76761;SDS011;65705;51.032;13.790;2023-02-28T01:07:14;8.00;;;3.40;;
76761;SDS011;65705;51.032;13.790;2023-02-28T01:09:40;10.02;;;3.95;;
76761;SDS011;65705;51.032;13.790;2023-02-28T01:12:07;6.75;;;3.17;;
76761;SDS011;65705;51.032;13.790;2023-02-28T01:14:33;7.82;;;3.03;;
76761;SDS011;65705;51.032;13.790;2023-02-28T01:17:00;7.93;;;3.20;;
76761;SDS011;65705;51.032;13.790;2023-02-28T01:19:25;6.50;;;3.60;;
76761;SDS011;65705;51.032;13.790;2023-02-28T01:21:51;7.22;;;3.13;;
76761;SDS011;65705;51.032;13.790;2023-02-28T01:24:17;9.55;;;3.83;;
76761;SDS011;65705;51.032;13.790;2023-02-28T01:26:43;11.95;;;3.95;;
76761;SDS011;65705;51.032;13.790;2023-02-28T01:29:09;8.98;;;3.33;;
76761;SDS011;65705;51.032;13.790;2023-02-28T01:31:35;12.02;;;3.60;;
76761;SDS011;65705;51.032;13.790;2023-02-28T01:34:01;11.52;;;3.88;;
76761;SDS011;65705;51.032;13.790;2023-02-28T01:36:28;8.90;;;3.65;;
76761;SDS011;65705;51.032;13.790;2023-02-28T01:38:54;8.68;;;3.70;;
76761;SDS011;65705;51.032;13.790;2023-02-28T01:44:55;8.90;;;3.65;;
76761;SDS011;65705;51.032;13.790;2023-02-28T01:47:08;7.63;;;3.47;;
76761;SDS011;65705;51.032;13.790;2023-02-28T01:49:34;10.05;;;3.63;;
76761;SDS011;65705;51.032;13.790;2023-02-28T01:52:00;13.40;;;3.90;;
76761;SDS011;65705;51.032;13.790;2023-02-28T01:54:27;9.50;;;3.47;;
76761;SDS011;65705;51.032;13.790;2023-02-28T02:02:05;12.13;;;3.80;;
76761;SDS011;65705;51.032;13.790;2023-02-28T02:04:32;6.93;;;3.20;;
76761;SDS011;65705;51.032;13.790;2023-02-28T02:07:03;10.60;;;3.90;;
76761;SDS011;65705;51.032;13.790;2023-02-28T02:09:30;10.88;;;3.58;;
76761;SDS011;65705;51.032;13.790;2023-02-28T02:11:55;12.68;;;5.00;;
76761;SDS011;65705;51.032;13.790;2023-02-28T02:15:11;9.38;;;4.10;;
76761;SDS011;65705;51.032;13.790;2023-02-28T02:17:44;11.18;;;4.03;;
76761;SDS011;65705;51.032;13.790;2023-02-28T02:26:21;10.15;;;4.25;;
76761;SDS011;65705;51.032;13.790;2023-02-28T02:34:59;7.88;;;3.70;;
76761;SDS011;65705;51.032;13.790;2023-02-28T02:37:52;6.68;;;3.38;;
76761;SDS011;65705;51.032;13.790;2023-02-28T02:40:41;10.40;;;3.45;;
76761;SDS011;65705;51.032;13.790;2023-02-28T02:43:15;10.45;;;4.15;;
76761;SDS011;65705;51.032;13.790;2023-02-28T02:45:55;9.77;;;3.75;;
76761;SDS011;65705;51.032;13.790;2023-02-28T02:48:25;9.57;;;3.80;;
76761;SDS011;65705;51.032;13.790;2023-02-28T02:51:03;9.40;;;3.88;;
76761;SDS011;65705;51.032;13.790;2023-02-28T02:53:41;9.98;;;3.80;;
76761;SDS011;65705;51.032;13.790;2023-02-28T02:56:26;10.23;;;3.70;;
76761;SDS011;65705;51.032;13.790;2023-02-28T02:58:56;9.60;;;4.00;;
76761;SDS011;65705;51.032;13.790;2023-02-28T03:01:27;9.55;;;3.88;;
76761;SDS011;65705;51.032;13.790;2023-02-28T03:04:30;8.70;;;3.90;;
76761;SDS011;65705;51.032;13.790;2023-02-28T03:06:52;7.97;;;3.50;;
76761;SDS011;65705;51.032;13.790;2023-02-28T03:09:22;9.23;;;4.32;;
76761;SDS011;65705;51.032;13.790;2023-02-28T03:11:49;9.40;;;3.80;;
76761;SDS011;65705;51.032;13.790;2023-02-28T03:17:24;12.75;;;4.63;;
76761;SDS011;65705;51.032;13.790;2023-02-28T03:27:42;12.93;;;3.92;;
76761;SDS011;65705;51.032;13.790;2023-02-28T03:30:41;9.23;;;3.78;;
76761;SDS011;65705;51.032;13.790;2023-02-28T03:33:17;10.10;;;4.60;;
76761;SDS011;65705;51.032;13.790;2023-02-28T03:35:54;9.93;;;4.18;;
76761;SDS011;65705;51.032;13.790;2023-02-28T03:41:25;10.50;;;4.35;;
76761;SDS011;65705;51.032;13.790;2023-02-28T03:43:58;9.05;;;4.47;;
76761;SDS011;65705;51.032;13.790;2023-02-28T03:46:28;12.85;;;5.10;;
76761;SDS011;65705;51.032;13.790;2023-02-28T03:49:21;11.18;;;4.43;;
76761;SDS011;65705;51.032;13.790;2023-02-28T03:51:48;10.02;;;4.72;;
76761;SDS011;65705;51.032;13.790;2023-02-28T03:54:18;11.20;;;4.15;;
76761;SDS011;65705;51.032;13.790;2023-02-28T03:56:53;10.70;;;4.60;;
76761;SDS011;65705;51.032;13.790;2023-02-28T04:01:51;12.20;;;5.10;;
76761;SDS011;65705;51.032;13.790;2023-02-28T04:04:17;10.40;;;4.75;;
76761;SDS011;65705;51.032;13.790;2023-02-28T04:06:43;10.70;;;4.93;;
76761;SDS011;65705;51.032;13.790;2023-02-28T04:09:11;10.73;;;5.25;;
76761;SDS011;65705;51.032;13.790;2023-02-28T04:11:45;12.20;;;4.75;;
76761;SDS011;65705;51.032;13.790;2023-02-28T04:14:18;10.30;;;4.55;;
76761;SDS011;65705;51.032;13.790;2023-02-28T04:16:45;12.27;;;4.85;;
76761;SDS011;65705;51.032;13.790;2023-02-28T04:19:11;12.90;;;4.78;;
76761;SDS011;65705;51.032;13.790;2023-02-28T04:21:38;9.63;;;5.25;;
76761;SDS011;65705;51.032;13.790;2023-02-28T04:24:11;12.10;;;5.25;;
76761;SDS011;65705;51.032;13.790;2023-02-28T04:26:41;14.65;;;6.20;;
76761;SDS011;65705;51.032;13.790;2023-02-28T04:29:09;12.43;;;5.60;;
76761;SDS011;65705;51.032;13.790;2023-02-28T04:31:36;9.35;;;4.90;;
76761;SDS011;65705;51.032;13.790;2023-02-28T04:34:02;9.40;;;4.90;;
76761;SDS011;65705;51.032;13.790;2023-02-28T04:36:28;11.95;;;4.82;;
76761;SDS011;65705;51.032;13.790;2023-02-28T04:38:54;13.50;;;5.35;;
76761;SDS011;65705;51.032;13.790;2023-02-28T04:41:20;11.52;;;4.82;;
76761;SDS011;65705;51.032;13.790;2023-02-28T04:43:47;13.30;;;5.32;;
76761;SDS011;65705;51.032;13.790;2023-02-28T04:46:13;11.35;;;5.60;;
76761;SDS011;65705;51.032;13.790;2023-02-28T04:48:39;10.35;;;4.75;;
76761;SDS011;65705;51.032;13.790;2023-02-28T04:51:09;13.38;;;4.88;;
76761;SDS011;65705;51.032;13.790;2023-02-28T04:53:37;14.38;;;5.10;;
76761;SDS011;65705;51.032;13.790;2023-02-28T04:56:04;13.70;;;5.38;;
76761;SDS011;65705;51.032;13.790;2023-02-28T04:58:31;11.23;;;5.38;;
76761;SDS011;65705;51.032;13.790;2023-02-28T05:01:01;11.45;;;5.20;;
76761;SDS011;65705;51.032;13.790;2023-02-28T05:03:51;13.55;;;5.25;;
76761;SDS011;65705;51.032;13.790;2023-02-28T05:06:17;11.25;;;5.47;;
76761;SDS011;65705;51.032;13.790;2023-02-28T05:08:43;13.60;;;5.72;;
76761;SDS011;65705;51.032;13.790;2023-02-28T05:11:20;10.68;;;4.75;;
76761;SDS011;65705;51.032;13.790;2023-02-28T05:13:49;10.43;;;5.53;;
76761;SDS011;65705;51.032;13.790;2023-02-28T05:16:15;14.93;;;5.40;;
76761;SDS011;65705;51.032;13.790;2023-02-28T05:18:41;16.55;;;5.63;;
76761;SDS011;65705;51.032;13.790;2023-02-28T05:21:17;12.25;;;5.20;;
76761;SDS011;65705;51.032;13.790;2023-02-28T05:23:49;11.80;;;5.35;;
76761;SDS011;65705;51.032;13.790;2023-02-28T05:26:15;12.98;;;5.85;;
76761;SDS011;65705;51.032;13.790;2023-02-28T05:28:40;11.57;;;5.88;;
76761;SDS011;65705;51.032;13.790;2023-02-28T05:31:07;12.80;;;5.15;;
76761;SDS011;65705;51.032;13.790;2023-02-28T05:33:35;12.15;;;5.53;;
76761;SDS011;65705;51.032;13.790;2023-02-28T05:36:01;16.35;;;7.93;;
76761;SDS011;65705;51.032;13.790;2023-02-28T05:38:27;14.73;;;6.25;;
76761;SDS011;65705;51.032;13.790;2023-02-28T05:40:53;13.38;;;6.00;;
76761;SDS011;65705;51.032;13.790;2023-02-28T05:43:18;13.95;;;5.63;;
76761;SDS011;65705;51.032;13.790;2023-02-28T05:45:44;14.10;;;5.40;;
76761;SDS011;65705;51.032;13.790;2023-02-28T05:48:10;17.80;;;5.90;;
76761;SDS011;65705;51.032;13.790;2023-02-28T05:50:37;14.05;;;5.50;;
76761;SDS011;65705;51.032;13.790;2023-02-28T05:53:03;12.85;;;5.00;;
76761;SDS011;65705;51.032;13.790;2023-02-28T05:55:29;12.13;;;5.85;;
76761;SDS011;65705;51.032;13.790;2023-02-28T05:57:55;14.32;;;4.93;;
76761;SDS011;65705;51.032;13.790;2023-02-28T06:00:21;13.32;;;6.38;;
76761;SDS011;65705;51.032;13.790;2023-02-28T06:02:47;14.70;;;5.88;;
76761;SDS011;65705;51.032;13.790;2023-02-28T06:05:13;13.00;;;6.25;;
76761;SDS011;65705;51.032;13.790;2023-02-28T06:07:40;10.40;;;5.97;;
76761;SDS011;65705;51.032;13.790;2023-02-28T06:10:06;13.10;;;5.90;;
76761;SDS011;65705;51.032;13.790;2023-02-28T06:12:33;14.77;;;6.85;;
76761;SDS011;65705;51.032;13.790;2023-02-28T06:14:58;16.08;;;6.47;;
76761;SDS011;65705;51.032;13.790;2023-02-28T06:17:24;14.35;;;5.88;;
76761;SDS011;65705;51.032;13.790;2023-02-28T06:19:50;16.48;;;6.53;;
76761;SDS011;65705;51.032;13.790;2023-02-28T06:22:15;14.45;;;5.82;;
76761;SDS011;65705;51.032;13.790;2023-02-28T06:24:41;12.27;;;5.93;;
76761;SDS011;65705;51.032;13.790;2023-02-28T06:27:07;14.73;;;6.63;;
76761;SDS011;65705;51.032;13.790;2023-02-28T06:29:33;13.43;;;6.07;;
76761;SDS011;65705;51.032;13.790;2023-02-28T06:31:59;11.50;;;5.38;;
76761;SDS011;65705;51.032;13.790;2023-02-28T06:34:25;20.90;;;6.07;;
76761;SDS011;65705;51.032;13.790;2023-02-28T06:36:51;15.02;;;5.78;;
76761;SDS011;65705;51.032;13.790;2023-02-28T06:39:17;13.00;;;6.03;;
76761;SDS011;65705;51.032;13.790;2023-02-28T06:41:43;15.85;;;6.25;;
76761;SDS011;65705;51.032;13.790;2023-02-28T06:44:19;13.85;;;6.07;;
76761;SDS011;65705;51.032;13.790;2023-02-28T06:46:46;15.88;;;7.25;;
76761;SDS011;65705;51.032;13.790;2023-02-28T06:49:12;13.10;;;6.45;;
76761;SDS011;65705;51.032;13.790;2023-02-28T06:51:38;16.75;;;7.28;;
76761;SDS011;65705;51.032;13.790;2023-02-28T06:54:06;14.95;;;6.90;;
76761;SDS011;65705;51.032;13.790;2023-02-28T06:56:36;14.38;;;6.03;;
76761;SDS011;65705;51.032;13.790;2023-02-28T06:59:02;16.23;;;6.85;;
76761;SDS011;65705;51.032;13.790;2023-02-28T07:01:29;15.18;;;6.45;;
76761;SDS011;65705;51.032;13.790;2023-02-28T07:03:56;13.55;;;5.82;;
76761;SDS011;65705;51.032;13.790;2023-02-28T07:06:23;13.98;;;5.60;;
76761;SDS011;65705;51.032;13.790;2023-02-28T07:08:50;15.25;;;5.75;;
76761;SDS011;65705;51.032;13.790;2023-02-28T07:11:18;13.75;;;6.10;;
76761;SDS011;65705;51.032;13.790;2023-02-28T07:13:44;13.10;;;5.88;;
76761;SDS011;65705;51.032;13.790;2023-02-28T07:16:11;13.23;;;5.13;;
76761;SDS011;65705;51.032;13.790;2023-02-28T07:18:37;14.73;;;5.80;;
76761;SDS011;65705;51.032;13.790;2023-02-28T07:21:07;13.43;;;5.60;;
76761;SDS011;65705;51.032;13.790;2023-02-28T07:26:00;12.43;;;5.25;;
76761;SDS011;65705;51.032;13.790;2023-02-28T07:28:26;15.80;;;5.40;;
76761;SDS011;65705;51.032;13.790;2023-02-28T07:30:52;15.88;;;5.20;;
76761;SDS011;65705;51.032;13.790;2023-02-28T07:33:18;14.07;;;6.05;;
76761;SDS011;65705;51.032;13.790;2023-02-28T07:35:43;13.18;;;6.15;;
76761;SDS011;65705;51.032;13.790;2023-02-28T07:38:10;11.73;;;5.18;;
76761;SDS011;65705;51.032;13.790;2023-02-28T07:40:36;15.55;;;6.95;;
76761;SDS011;65705;51.032;13.790;2023-02-28T07:43:03;13.77;;;5.90;;
76761;SDS011;65705;51.032;13.790;2023-02-28T07:45:29;13.90;;;6.05;;
76761;SDS011;65705;51.032;13.790;2023-02-28T07:47:56;15.35;;;6.00;;
76761;SDS011;65705;51.032;13.790;2023-02-28T07:50:23;17.98;;;7.15;;
76761;SDS011;65705;51.032;13.790;2023-02-28T07:52:48;16.33;;;6.20;;
76761;SDS011;65705;51.032;13.790;2023-02-28T07:55:14;17.80;;;6.53;;
76761;SDS011;65705;51.032;13.790;2023-02-28T07:57:41;13.30;;;6.38;;
76761;SDS011;65705;51.032;13.790;2023-02-28T08:00:08;19.08;;;7.22;;
76761;SDS011;65705;51.032;13.790;2023-02-28T08:02:39;12.90;;;6.28;;
76761;SDS011;65705;51.032;13.790;2023-02-28T08:05:05;15.48;;;6.13;;
76761;SDS011;65705;51.032;13.790;2023-02-28T08:07:32;16.00;;;7.07;;
76761;SDS011;65705;51.032;13.790;2023-02-28T08:09:58;15.35;;;5.97;;
76761;SDS011;65705;51.032;13.790;2023-02-28T08:12:24;16.25;;;7.15;;
76761;SDS011;65705;51.032;13.790;2023-02-28T08:14:50;15.65;;;6.88;;
76761;SDS011;65705;51.032;13.790;2023-02-28T08:17:16;29.77;;;14.05;;
76761;SDS011;65705;51.032;13.790;2023-02-28T08:19:41;19.02;;;8.27;;
76761;SDS011;65705;51.032;13.790;2023-02-28T08:22:07;28.67;;;10.80;;
76761;SDS011;65705;51.032;13.790;2023-02-28T08:24:33;33.47;;;12.98;;
76761;SDS011;65705;51.032;13.790;2023-02-28T08:26:58;24.50;;;10.48;;
76761;SDS011;65705;51.032;13.790;2023-02-28T08:29:24;21.92;;;6.93;;
76761;SDS011;65705;51.032;13.790;2023-02-28T08:31:51;17.65;;;7.95;;
76761;SDS011;65705;51.032;13.790;2023-02-28T08:34:17;17.77;;;6.60;;
76761;SDS011;65705;51.032;13.790;2023-02-28T08:36:43;14.93;;;6.72;;
76761;SDS011;65705;51.032;13.790;2023-02-28T08:39:12;18.80;;;7.53;;
76761;SDS011;65705;51.032;13.790;2023-02-28T08:41:38;17.60;;;7.43;;
76761;SDS011;65705;51.032;13.790;2023-02-28T08:44:04;19.38;;;6.65;;
76761;SDS011;65705;51.032;13.790;2023-02-28T08:46:29;18.30;;;6.43;;
76761;SDS011;65705;51.032;13.790;2023-02-28T08:48:55;19.75;;;7.38;;
76761;SDS011;65705;51.032;13.790;2023-02-28T08:51:25;18.45;;;7.38;;
76761;SDS011;65705;51.032;13.790;2023-02-28T08:53:52;16.80;;;6.78;;
76761;SDS011;65705;51.032;13.790;2023-02-28T08:56:19;19.98;;;7.18;;
76761;SDS011;65705;51.032;13.790;2023-02-28T08:58:46;14.90;;;6.88;;
76761;SDS011;65705;51.032;13.790;2023-02-28T09:01:20;12.93;;;6.35;;
76761;SDS011;65705;51.032;13.790;2023-02-28T09:03:50;13.80;;;6.30;;
76761;SDS011;65705;51.032;13.790;2023-02-28T09:06:17;14.38;;;7.30;;
76761;SDS011;65705;51.032;13.790;2023-02-28T09:08:45;17.23;;;6.75;;
76761;SDS011;65705;51.032;13.790;2023-02-28T09:11:11;17.95;;;6.45;;
76761;SDS011;65705;51.032;13.790;2023-02-28T09:13:38;12.80;;;5.90;;
76761;SDS011;65705;51.032;13.790;2023-02-28T09:16:05;19.75;;;7.40;;
76761;SDS011;65705;51.032;13.790;2023-02-28T09:18:33;14.35;;;6.80;;
76761;SDS011;65705;51.032;13.790;2023-02-28T09:21:02;16.17;;;6.15;;
76761;SDS011;65705;51.032;13.790;2023-02-28T09:23:32;15.25;;;6.03;;
76761;SDS011;65705;51.032;13.790;2023-02-28T09:25:58;14.73;;;6.13;;
76761;SDS011;65705;51.032;13.790;2023-02-28T09:28:23;13.50;;;5.75;;
76761;SDS011;65705;51.032;13.790;2023-02-28T09:30:50;16.27;;;6.18;;
76761;SDS011;65705;51.032;13.790;2023-02-28T09:33:20;16.77;;;6.05;;
76761;SDS011;65705;51.032;13.790;2023-02-28T09:35:47;13.52;;;6.60;;
76761;SDS011;65705;51.032;13.790;2023-02-28T09:38:13;13.82;;;6.38;;
76761;SDS011;65705;51.032;13.790;2023-02-28T09:40:44;11.15;;;4.95;;
76761;SDS011;65705;51.032;13.790;2023-02-28T09:43:14;9.98;;;4.57;;
76761;SDS011;65705;51.032;13.790;2023-02-28T09:45:43;12.70;;;5.40;;
76761;SDS011;65705;51.032;13.790;2023-02-28T09:48:21;14.45;;;5.50;;
76761;SDS011;65705;51.032;13.790;2023-02-28T09:50:50;20.20;;;5.07;;
76761;SDS011;65705;51.032;13.790;2023-02-28T09:53:25;11.77;;;5.80;;
76761;SDS011;65705;51.032;13.790;2023-02-28T09:56:14;12.05;;;5.78;;
76761;SDS011;65705;51.032;13.790;2023-02-28T10:04:52;13.68;;;4.75;;
76761;SDS011;65705;51.032;13.790;2023-02-28T10:09:58;7.95;;;4.05;;
76761;SDS011;65705;51.032;13.790;2023-02-28T10:12:27;11.18;;;4.40;;
76761;SDS011;65705;51.032;13.790;2023-02-28T10:14:56;9.55;;;4.45;;
76761;SDS011;65705;51.032;13.790;2023-02-28T10:17:25;12.30;;;4.88;;
76761;SDS011;65705;51.032;13.790;2023-02-28T10:20:00;9.52;;;4.28;;
76761;SDS011;65705;51.032;13.790;2023-02-28T10:25:16;11.93;;;5.18;;
76761;SDS011;65705;51.032;13.790;2023-02-28T10:27:44;14.52;;;4.75;;
76761;SDS011;65705;51.032;13.790;2023-02-28T10:30:11;15.82;;;6.38;;
76761;SDS011;65705;51.032;13.790;2023-02-28T10:32:39;14.73;;;5.65;;
76761;SDS011;65705;51.032;13.790;2023-02-28T10:37:47;14.75;;;6.03;;
76761;SDS011;65705;51.032;13.790;2023-02-28T10:42:57;10.32;;;5.03;;
76761;SDS011;65705;51.032;13.790;2023-02-28T10:45:53;15.43;;;5.68;;
76761;SDS011;65705;51.032;13.790;2023-02-28T10:53:16;13.85;;;5.20;;
76761;SDS011;65705;51.032;13.790;2023-02-28T10:55:43;10.02;;;5.13;;
76761;SDS011;65705;51.032;13.790;2023-02-28T10:58:22;13.77;;;5.80;;
76761;SDS011;65705;51.032;13.790;2023-02-28T11:00:49;10.77;;;5.43;;
76761;SDS011;65705;51.032;13.790;2023-02-28T11:03:28;13.77;;;5.82;;
76761;SDS011;65705;51.032;13.790;2023-02-28T11:05:57;14.40;;;5.32;;
76761;SDS011;65705;51.032;13.790;2023-02-28T11:08:23;12.93;;;6.03;;
76761;SDS011;65705;51.032;13.790;2023-02-28T11:10:54;16.60;;;5.78;;
76761;SDS011;65705;51.032;13.790;2023-02-28T11:13:24;12.05;;;5.53;;
76761;SDS011;65705;51.032;13.790;2023-02-28T11:15:53;13.88;;;6.80;;
76761;SDS011;65705;51.032;13.790;2023-02-28T11:21:15;13.20;;;5.72;;
76761;SDS011;65705;51.032;13.790;2023-02-28T11:23:44;14.88;;;5.25;;
76761;SDS011;65705;51.032;13.790;2023-02-28T11:26:10;10.18;;;4.60;;
76761;SDS011;65705;51.032;13.790;2023-02-28T11:28:38;10.75;;;4.75;;
76761;SDS011;65705;51.032;13.790;2023-02-28T11:31:09;11.30;;;4.68;;
76761;SDS011;65705;51.032;13.790;2023-02-28T11:33:43;11.15;;;5.43;;
76761;SDS011;65705;51.032;13.790;2023-02-28T11:38:41;10.43;;;5.18;;
76761;SDS011;65705;51.032;13.790;2023-02-28T11:41:12;9.07;;;5.05;;
76761;SDS011;65705;51.032;13.790;2023-02-28T11:51:35;12.38;;;4.82;;
76761;SDS011;65705;51.032;13.790;2023-02-28T11:57:10;14.02;;;5.35;;
76761;SDS011;65705;51.032;13.790;2023-02-28T11:59:55;10.13;;;5.00;;
76761;SDS011;65705;51.032;13.790;2023-02-28T12:03:01;11.43;;;5.40;;
76761;SDS011;65705;51.032;13.790;2023-02-28T12:05:52;15.52;;;5.20;;
76761;SDS011;65705;51.032;13.790;2023-02-28T12:08:29;15.57;;;5.18;;
76761;SDS011;65705;51.032;13.790;2023-02-28T12:13:39;15.40;;;4.97;;
76761;SDS011;65705;51.032;13.790;2023-02-28T12:18:48;9.00;;;5.10;;
76761;SDS011;65705;51.032;13.790;2023-02-28T12:21:24;10.23;;;4.80;;
76761;SDS011;65705;51.032;13.790;2023-02-28T12:26:49;12.93;;;5.50;;
76761;SDS011;65705;51.032;13.790;2023-02-28T12:31:50;12.07;;;4.88;;
76761;SDS011;65705;51.032;13.790;2023-02-28T12:34:21;10.48;;;5.07;;
76761;SDS011;65705;51.032;13.790;2023-02-28T12:36:50;11.55;;;5.35;;
76761;SDS011;65705;51.032;13.790;2023-02-28T12:41:53;11.20;;;5.00;;
76761;SDS011;65705;51.032;13.790;2023-02-28T12:44:30;10.52;;;5.60;;
76761;SDS011;65705;51.032;13.790;2023-02-28T12:47:00;12.68;;;5.13;;
76761;SDS011;65705;51.032;13.790;2023-02-28T12:49:31;12.35;;;5.28;;
76761;SDS011;65705;51.032;13.790;2023-02-28T12:52:02;12.90;;;5.78;;
76761;SDS011;65705;51.032;13.790;2023-02-28T12:54:36;10.95;;;4.70;;
76761;SDS011;65705;51.032;13.790;2023-02-28T13:10:58;11.38;;;5.53;;
76761;SDS011;65705;51.032;13.790;2023-02-28T13:13:25;13.15;;;6.20;;
76761;SDS011;65705;51.032;13.790;2023-02-28T13:18:38;12.80;;;5.88;;
76761;SDS011;65705;51.032;13.790;2023-02-28T13:21:24;14.35;;;5.60;;
76761;SDS011;65705;51.032;13.790;2023-02-28T13:27:10;15.82;;;6.13;;
76761;SDS011;65705;51.032;13.790;2023-02-28T13:29:27;14.57;;;7.57;;
76761;SDS011;65705;51.032;13.790;2023-02-28T13:34:31;13.93;;;6.35;;
76761;SDS011;65705;51.032;13.790;2023-02-28T13:45:25;16.48;;;6.97;;
76761;SDS011;65705;51.032;13.790;2023-02-28T13:53:03;16.08;;;6.75;;
76761;SDS011;65705;51.032;13.790;2023-02-28T14:06:33;13.45;;;6.57;;
76761;SDS011;65705;51.032;13.790;2023-02-28T14:11:37;17.50;;;6.88;;
76761;SDS011;65705;51.032;13.790;2023-02-28T14:14:06;12.80;;;6.47;;
76761;SDS011;65705;51.032;13.790;2023-02-28T14:16:45;14.65;;;6.88;;
76761;SDS011;65705;51.032;13.790;2023-02-28T14:19:13;15.10;;;6.25;;
76761;SDS011;65705;51.032;13.790;2023-02-28T14:40:56;13.98;;;6.38;;
76761;SDS011;65705;51.032;13.790;2023-02-28T14:43:26;17.75;;;6.57;;
76761;SDS011;65705;51.032;13.790;2023-02-28T14:46:00;16.45;;;7.32;;
76761;SDS011;65705;51.032;13.790;2023-02-28T14:48:28;13.45;;;7.00;;
76761;SDS011;65705;51.032;13.790;2023-02-28T14:50:56;13.80;;;6.43;;
76761;SDS011;65705;51.032;13.790;2023-02-28T14:53:25;20.63;;;8.27;;
76761;SDS011;65705;51.032;13.790;2023-02-28T14:55:53;14.10;;;6.70;;
76761;SDS011;65705;51.032;13.790;2023-02-28T14:58:29;16.23;;;6.63;;
76761;SDS011;65705;51.032;13.790;2023-02-28T15:00:59;18.55;;;7.72;;
76761;SDS011;65705;51.032;13.790;2023-02-28T15:03:38;15.77;;;8.45;;
76761;SDS011;65705;51.032;13.790;2023-02-28T15:06:05;19.67;;;7.60;;
76761;SDS011;65705;51.032;13.790;2023-02-28T15:08:37;14.60;;;7.25;;
76761;SDS011;65705;51.032;13.790;2023-02-28T15:11:04;15.68;;;7.13;;
76761;SDS011;65705;51.032;13.790;2023-02-28T15:13:40;15.00;;;7.38;;
76761;SDS011;65705;51.032;13.790;2023-02-28T15:16:21;14.85;;;6.97;;
76761;SDS011;65705;51.032;13.790;2023-02-28T15:19:00;14.20;;;6.28;;
76761;SDS011;65705;51.032;13.790;2023-02-28T15:21:35;15.75;;;7.22;;
76761;SDS011;65705;51.032;13.790;2023-02-28T15:24:14;14.52;;;6.80;;
76761;SDS011;65705;51.032;13.790;2023-02-28T15:27:26;19.00;;;7.22;;
76761;SDS011;65705;51.032;13.790;2023-02-28T15:29:57;16.40;;;7.00;;
76761;SDS011;65705;51.032;13.790;2023-02-28T15:32:31;14.55;;;7.30;;
76761;SDS011;65705;51.032;13.790;2023-02-28T15:35:17;20.00;;;7.30;;
76761;SDS011;65705;51.032;13.790;2023-02-28T15:37:46;14.85;;;7.53;;
76761;SDS011;65705;51.032;13.790;2023-02-28T15:40:25;15.80;;;7.15;;
76761;SDS011;65705;51.032;13.790;2023-02-28T15:48:22;14.63;;;7.10;;
76761;SDS011;65705;51.032;13.790;2023-02-28T15:50:51;18.02;;;7.43;;
76761;SDS011;65705;51.032;13.790;2023-02-28T15:53:27;16.38;;;8.30;;
76761;SDS011;65705;51.032;13.790;2023-02-28T15:56:00;17.63;;;8.82;;
76761;SDS011;65705;51.032;13.790;2023-02-28T15:58:28;17.88;;;8.95;;
76761;SDS011;65705;51.032;13.790;2023-02-28T16:01:05;17.65;;;7.57;;
76761;SDS011;65705;51.032;13.790;2023-02-28T16:03:50;17.55;;;7.57;;
76761;SDS011;65705;51.032;13.790;2023-02-28T16:08:49;16.13;;;6.63;;
76761;SDS011;65705;51.032;13.790;2023-02-28T16:11:16;14.23;;;6.95;;
76761;SDS011;65705;51.032;13.790;2023-02-28T16:13:42;16.38;;;7.55;;
76761;SDS011;65705;51.032;13.790;2023-02-28T16:16:10;14.75;;;7.40;;
76761;SDS011;65705;51.032;13.790;2023-02-28T16:18:41;17.52;;;7.47;;
76761;SDS011;65705;51.032;13.790;2023-02-28T16:21:08;14.90;;;7.38;;
76761;SDS011;65705;51.032;13.790;2023-02-28T16:23:34;15.02;;;6.78;;
76761;SDS011;65705;51.032;13.790;2023-02-28T16:25:59;16.83;;;7.50;;
76761;SDS011;65705;51.032;13.790;2023-02-28T16:28:30;13.10;;;6.50;;
76761;SDS011;65705;51.032;13.790;2023-02-28T16:31:01;16.50;;;7.40;;
76761;SDS011;65705;51.032;13.790;2023-02-28T16:33:29;17.05;;;7.72;;
76761;SDS011;65705;51.032;13.790;2023-02-28T16:35:56;15.90;;;7.32;;
76761;SDS011;65705;51.032;13.790;2023-02-28T16:38:22;16.75;;;8.45;;
76761;SDS011;65705;51.032;13.790;2023-02-28T16:40:50;16.45;;;7.78;;
76761;SDS011;65705;51.032;13.790;2023-02-28T16:43:22;17.13;;;7.40;;
76761;SDS011;65705;51.032;13.790;2023-02-28T16:45:56;18.38;;;7.25;;
76761;SDS011;65705;51.032;13.790;2023-02-28T16:48:24;28.45;;;12.27;;
76761;SDS011;65705;51.032;13.790;2023-02-28T16:50:50;33.85;;;16.42;;
76761;SDS011;65705;51.032;13.790;2023-02-28T16:53:16;29.60;;;12.93;;
76761;SDS011;65705;51.032;13.790;2023-02-28T16:55:42;25.70;;;11.77;;
76761;SDS011;65705;51.032;13.790;2023-02-28T16:58:10;27.40;;;10.18;;
76761;SDS011;65705;51.032;13.790;2023-02-28T17:00:39;25.38;;;9.57;;
76761;SDS011;65705;51.032;13.790;2023-02-28T17:03:05;16.35;;;8.50;;
76761;SDS011;65705;51.032;13.790;2023-02-28T17:05:50;19.25;;;8.40;;
76761;SDS011;65705;51.032;13.790;2023-02-28T17:08:16;27.45;;;9.23;;
76761;SDS011;65705;51.032;13.790;2023-02-28T17:10:42;19.73;;;10.20;;
76761;SDS011;65705;51.032;13.790;2023-02-28T17:13:08;24.55;;;9.68;;
76761;SDS011;65705;51.032;13.790;2023-02-28T17:15:34;25.75;;;9.20;;
76761;SDS011;65705;51.032;13.790;2023-02-28T17:18:03;21.60;;;9.27;;
76761;SDS011;65705;51.032;13.790;2023-02-28T17:20:30;16.25;;;8.95;;
76761;SDS011;65705;51.032;13.790;2023-02-28T17:22:57;19.80;;;8.88;;
76761;SDS011;65705;51.032;13.790;2023-02-28T17:25:23;19.20;;;8.65;;